createdAt,value
2022-10-13T00:01:57.157Z,64.40
2022-10-13T00:04:26.724Z,59.50
2022-10-13T00:07:00.669Z,56.47
2022-10-13T00:09:44.576Z,53.75
2022-10-13T00:12:14.824Z,56.63
2022-10-13T00:14:45.832Z,62.17
2022-10-13T00:17:14.880Z,55.45
2022-10-13T00:19:49.618Z,53.72
2022-10-13T00:22:21.924Z,49.50
2022-10-13T00:24:56.046Z,51.15
2022-10-13T00:27:26.355Z,49.97
2022-10-13T00:29:58.803Z,54.78
2022-10-13T00:32:28.963Z,70.57
2022-10-13T00:34:58.891Z,66.65
2022-10-13T00:37:27.971Z,53.05
2022-10-13T00:39:59.361Z,51.40
2022-10-13T00:42:29.873Z,49.80
2022-10-13T00:45:14.318Z,49.95
2022-10-13T00:47:47.557Z,49.13
2022-10-13T00:50:35.539Z,49.83
2022-10-13T00:53:08.741Z,51.42
2022-10-13T00:55:48.240Z,46.65
2022-10-13T00:58:24.191Z,50.15
2022-10-13T01:03:23.571Z,57.13
2022-10-13T01:06:05.451Z,54.35
2022-10-13T01:08:37.176Z,47.92
2022-10-13T01:11:26.021Z,55.35
2022-10-13T01:14:22.657Z,51.13
2022-10-13T01:17:27.217Z,49.88
2022-10-13T01:20:27.080Z,53.30
2022-10-13T01:23:26.565Z,66.72
2022-10-13T01:26:32.599Z,62.58
2022-10-13T01:29:29.182Z,59.67
2022-10-13T01:32:29.766Z,51.90
2022-10-13T01:35:07.619Z,52.65
2022-10-13T01:37:55.321Z,53.20
2022-10-13T01:40:55.080Z,51.67
2022-10-13T01:43:33.006Z,48.75
2022-10-13T01:46:18.465Z,50.25
2022-10-13T01:48:56.120Z,48.92
2022-10-13T01:51:33.307Z,48.22
2022-10-13T01:54:00.935Z,49.70
2022-10-13T01:56:37.908Z,47.58
2022-10-13T01:59:13.380Z,47.15
2022-10-13T02:01:57.120Z,48.22
2022-10-13T02:04:53.497Z,48.30
2022-10-13T02:07:49.707Z,48.47
2022-10-13T02:10:33.878Z,50.28
2022-10-13T02:13:05.786Z,51.00
2022-10-13T02:15:55.271Z,70.75
2022-10-13T02:18:36.444Z,55.30
2022-10-13T02:21:11.919Z,49.33
2022-10-13T02:23:46.226Z,56.35
2022-10-13T02:26:21.980Z,59.45
2022-10-13T02:28:58.292Z,48.17
2022-10-13T02:31:38.601Z,47.10
2022-10-13T02:34:11.899Z,51.22
2022-10-13T02:36:46.484Z,51.42
2022-10-13T02:39:19.253Z,46.78
2022-10-13T02:41:50.451Z,54.13
2022-10-13T02:44:23.510Z,51.17
2022-10-13T02:46:58.107Z,53.17
2022-10-13T02:49:31.593Z,53.42
2022-10-13T02:52:02.483Z,49.45
2022-10-13T02:54:33.966Z,52.00
2022-10-13T02:57:03.625Z,45.75
2022-10-13T02:59:35.746Z,49.95
2022-10-13T03:02:08.499Z,56.78
2022-10-13T03:04:43.799Z,56.72
2022-10-13T03:09:54.460Z,54.83
2022-10-13T03:12:24.965Z,49.45
2022-10-13T03:14:54.224Z,50.40
2022-10-13T03:17:25.274Z,50.85
2022-10-13T03:19:55.086Z,50.92
2022-10-13T03:22:24.803Z,55.58
2022-10-13T03:24:53.568Z,51.53
2022-10-13T03:27:24.395Z,54.67
2022-10-13T03:29:54.253Z,54.45
2022-10-13T03:32:23.390Z,57.92
2022-10-13T03:34:52.996Z,49.85
2022-10-13T03:37:27.536Z,49.85
2022-10-13T03:40:00.171Z,52.38
2022-10-13T03:42:37.223Z,46.45
2022-10-13T03:45:07.170Z,48.53
2022-10-13T03:47:40.862Z,46.38
2022-10-13T03:50:13.024Z,46.88
2022-10-13T03:52:44.595Z,45.30
2022-10-13T03:55:12.525Z,49.75
2022-10-13T03:57:46.528Z,43.72
2022-10-13T04:00:21.556Z,49.92
2022-10-13T04:02:54.362Z,46.92
2022-10-13T04:05:30.272Z,45.15
2022-10-13T04:07:59.529Z,47.20
2022-10-13T04:10:28.037Z,44.83
2022-10-13T04:12:56.721Z,46.10
2022-10-13T04:15:26.839Z,44.00
2022-10-13T04:17:57.100Z,43.50
2022-10-13T04:20:31.496Z,47.25
2022-10-13T04:23:00.437Z,51.65
2022-10-13T04:25:32.600Z,51.33
2022-10-13T04:28:07.346Z,54.10
2022-10-13T04:30:49.287Z,61.55
2022-10-13T04:33:18.783Z,58.90
2022-10-13T04:35:53.685Z,56.15
2022-10-13T04:38:28.762Z,58.92
2022-10-13T04:40:59.804Z,53.27
2022-10-13T04:43:32.290Z,46.88
2022-10-13T04:46:13.490Z,50.65
2022-10-13T04:48:44.519Z,53.17
2022-10-13T04:51:19.306Z,57.25
2022-10-13T04:53:49.527Z,58.25
2022-10-13T04:56:23.769Z,58.47
2022-10-13T04:58:59.489Z,57.40
2022-10-13T05:01:31.705Z,61.85
2022-10-13T05:07:05.195Z,67.25
2022-10-13T05:09:33.696Z,58.20
2022-10-13T05:12:09.648Z,60.08
2022-10-13T05:14:39.347Z,61.05
2022-10-13T05:17:09.720Z,60.60
2022-10-13T05:19:40.494Z,68.60
2022-10-13T05:22:13.009Z,65.43
2022-10-13T05:24:48.467Z,70.65
2022-10-13T05:29:59.080Z,75.60
2022-10-13T05:32:30.643Z,73.18
2022-10-13T05:34:59.011Z,72.47
2022-10-13T05:37:34.255Z,78.05
2022-10-13T05:40:02.952Z,80.82
2022-10-13T05:42:36.135Z,77.65
2022-10-13T05:45:15.040Z,76.38
2022-10-13T05:47:46.390Z,80.00
2022-10-13T05:50:21.441Z,74.75
2022-10-13T05:52:53.206Z,83.47
2022-10-13T05:55:26.092Z,79.10
2022-10-13T05:57:58.153Z,83.20
2022-10-13T06:00:31.182Z,89.85
2022-10-13T06:03:09.849Z,90.75
2022-10-13T06:05:48.016Z,92.38
2022-10-13T06:08:23.276Z,84.05
2022-10-13T06:10:53.032Z,87.93
2022-10-13T06:13:21.818Z,86.32
2022-10-13T06:15:57.724Z,83.85
2022-10-13T06:18:38.302Z,84.10
2022-10-13T06:21:07.984Z,79.88
2022-10-13T06:23:36.302Z,77.25
2022-10-13T06:26:11.776Z,87.38
2022-10-13T06:28:47.625Z,92.53
2022-10-13T06:31:26.587Z,109.65
2022-10-13T06:34:01.640Z,98.15
2022-10-13T06:36:30.611Z,116.68
2022-10-13T06:38:59.569Z,103.97
2022-10-13T06:41:29.620Z,101.70
2022-10-13T06:44:15.658Z,93.80
2022-10-13T06:49:30.422Z,98.75
2022-10-13T06:52:05.409Z,98.38
2022-10-13T06:54:39.800Z,114.40
2022-10-13T06:57:12.800Z,104.95
2022-10-13T06:59:46.411Z,106.30
2022-10-13T07:02:16.078Z,103.45
2022-10-13T07:04:46.837Z,105.28
2022-10-13T07:07:18.134Z,113.72
2022-10-13T07:09:48.206Z,106.00
2022-10-13T07:12:19.354Z,100.78
2022-10-13T07:14:52.500Z,112.38
2022-10-13T07:17:23.829Z,122.35
2022-10-13T07:19:57.827Z,113.07
2022-10-13T07:22:33.477Z,110.30
2022-10-13T07:25:03.631Z,108.97
2022-10-13T07:27:36.441Z,102.35
2022-10-13T07:30:07.378Z,110.90
2022-10-13T07:32:44.785Z,119.65
2022-10-13T07:35:15.621Z,120.75
2022-10-13T07:37:49.456Z,114.00
2022-10-13T07:40:19.579Z,119.70
2022-10-13T07:42:52.008Z,114.72
2022-10-13T07:45:21.596Z,111.25
2022-10-13T07:47:53.428Z,116.95
2022-10-13T07:50:24.805Z,120.13
2022-10-13T07:53:01.244Z,108.45
2022-10-13T07:55:35.471Z,122.22
2022-10-13T07:58:12.590Z,119.72
2022-10-13T08:00:44.065Z,122.45
2022-10-13T08:03:15.075Z,114.90
2022-10-13T08:05:46.326Z,111.05
2022-10-13T08:08:21.490Z,103.68
2022-10-13T08:10:50.954Z,108.20
2022-10-13T08:13:23.415Z,105.55
2022-10-13T08:15:54.696Z,121.40
2022-10-13T08:18:32.667Z,99.88
2022-10-13T08:21:33.070Z,106.40
2022-10-13T08:23:53.535Z,102.43
2022-10-13T08:26:32.410Z,92.68
2022-10-13T08:29:22.310Z,104.20
2022-10-13T08:31:52.917Z,93.45
2022-10-13T08:34:28.993Z,99.80
2022-10-13T08:37:00.796Z,107.47
2022-10-13T08:39:31.340Z,95.18
2022-10-13T08:42:04.349Z,91.80
2022-10-13T08:50:36.596Z,90.47
2022-10-13T08:53:34.521Z,87.68
2022-10-13T08:56:26.843Z,96.88
2022-10-13T08:58:59.256Z,84.15
2022-10-13T09:01:38.173Z,86.03
2022-10-13T09:04:41.550Z,87.78
2022-10-13T09:07:29.913Z,85.68
2022-10-13T09:10:00.701Z,105.00
2022-10-13T09:12:34.548Z,90.65
2022-10-13T09:15:11.386Z,89.80
2022-10-13T09:17:41.648Z,85.53
2022-10-13T09:20:29.385Z,89.50
2022-10-13T09:23:19.488Z,87.03
2022-10-13T09:25:54.258Z,85.35
2022-10-13T09:28:30.904Z,93.55
2022-10-13T09:31:22.881Z,92.47
2022-10-13T09:34:22.518Z,97.03
2022-10-13T09:36:59.961Z,88.43
2022-10-13T09:39:30.280Z,97.75
2022-10-13T09:42:24.828Z,99.43
2022-10-13T09:45:17.424Z,96.07
2022-10-13T09:47:57.665Z,90.53
2022-10-13T09:50:40.352Z,90.93
2022-10-13T09:53:31.838Z,96.97
2022-10-13T09:56:30.106Z,94.55
2022-10-13T09:59:31.459Z,86.97
2022-10-13T10:02:26.536Z,87.18
2022-10-13T10:05:48.599Z,95.65
2022-10-13T10:08:33.783Z,86.22
2022-10-13T10:11:21.969Z,89.50
2022-10-13T10:13:54.714Z,78.07
2022-10-13T10:16:40.356Z,82.53
2022-10-13T10:19:39.495Z,75.20
2022-10-13T10:22:36.679Z,82.28
2022-10-13T10:25:27.275Z,77.80
2022-10-13T10:28:26.754Z,76.80
2022-10-13T10:31:00.536Z,79.75
2022-10-13T10:33:53.889Z,74.78
2022-10-13T10:36:28.793Z,73.22
2022-10-13T10:39:21.695Z,68.40
2022-10-13T10:42:26.400Z,75.63
2022-10-13T10:44:59.795Z,81.25
2022-10-13T10:47:45.598Z,70.10
2022-10-13T10:50:21.485Z,88.50
2022-10-13T10:53:13.127Z,76.03
2022-10-13T10:55:55.700Z,64.82
2022-10-13T10:59:08.203Z,79.60
2022-10-13T11:02:17.467Z,82.18
2022-10-13T11:04:51.046Z,78.47
2022-10-13T11:07:31.221Z,69.85
2022-10-13T11:10:10.507Z,74.45
2022-10-13T11:13:08.078Z,65.95
2022-10-13T11:15:51.169Z,67.13
2022-10-13T11:19:12.419Z,50.10
2022-10-13T11:22:07.911Z,47.05
2022-10-13T11:24:46.869Z,53.88
2022-10-13T11:27:37.365Z,43.65
2022-10-13T11:30:44.980Z,41.00
2022-10-13T11:33:49.756Z,30.17
2022-10-13T11:36:46.767Z,34.88
2022-10-13T11:42:12.453Z,35.30
2022-10-13T11:44:58.718Z,30.33
2022-10-13T11:47:54.835Z,35.33
2022-10-13T11:50:48.900Z,27.80
2022-10-13T11:53:29.874Z,30.88
2022-10-13T11:56:21.107Z,30.00
2022-10-13T11:58:49.900Z,27.85
2022-10-13T12:01:20.581Z,28.80
2022-10-13T12:03:53.262Z,24.77
2022-10-13T12:06:50.077Z,28.33
2022-10-13T12:09:24.807Z,29.50
2022-10-13T12:12:12.312Z,28.63
2022-10-13T12:14:48.936Z,28.38
2022-10-13T12:17:28.309Z,24.88
2022-10-13T12:20:28.452Z,24.65
2022-10-13T12:22:58.872Z,23.85
2022-10-13T12:25:31.845Z,24.27
2022-10-13T12:28:05.796Z,26.30
2022-10-13T12:30:38.576Z,24.15
2022-10-13T12:33:36.567Z,24.58
2022-10-13T12:36:17.769Z,24.30
2022-10-13T12:38:57.796Z,27.08
2022-10-13T12:41:34.623Z,23.38
2022-10-13T12:44:06.763Z,25.67
2022-10-13T12:46:56.434Z,27.02
2022-10-13T12:49:50.585Z,24.25
2022-10-13T12:52:30.624Z,24.88
2022-10-13T12:55:06.080Z,29.40
2022-10-13T12:57:44.280Z,21.92
2022-10-13T13:00:34.203Z,22.35
2022-10-13T13:03:23.534Z,19.10
2022-10-13T13:06:19.079Z,23.52
2022-10-13T13:09:29.016Z,16.13
2022-10-13T13:12:27.429Z,20.80
2022-10-13T13:14:58.182Z,16.63
2022-10-13T13:20:33.424Z,15.40
2022-10-13T13:23:05.877Z,18.73
2022-10-13T13:25:39.531Z,16.75
2022-10-13T13:28:16.478Z,20.58
2022-10-13T13:30:47.566Z,19.50
2022-10-13T13:33:24.256Z,16.50
2022-10-13T13:35:58.770Z,15.80
2022-10-13T13:38:29.823Z,17.88
2022-10-13T13:41:03.094Z,14.27
2022-10-13T13:43:34.746Z,15.77
2022-10-13T13:46:07.696Z,16.77
2022-10-13T13:48:38.781Z,17.08
2022-10-13T13:51:13.076Z,21.30
2022-10-13T13:53:46.458Z,29.17
2022-10-13T13:56:18.753Z,18.58
2022-10-13T13:58:58.590Z,24.63
2022-10-13T14:01:29.153Z,21.33
2022-10-13T14:04:00.019Z,21.23
2022-10-13T14:06:36.801Z,21.30
2022-10-13T14:09:09.015Z,21.17
2022-10-13T14:11:39.217Z,23.85
2022-10-13T14:14:13.079Z,38.85
2022-10-13T14:16:42.460Z,20.92
2022-10-13T14:19:11.345Z,16.50
2022-10-13T14:21:41.983Z,19.52
2022-10-13T14:24:16.633Z,19.27
2022-10-13T14:26:46.768Z,17.90
2022-10-13T14:29:19.434Z,12.68
2022-10-13T14:31:56.287Z,11.60
2022-10-13T14:37:02.856Z,16.85
2022-10-13T14:39:32.821Z,13.27
2022-10-13T14:42:02.398Z,14.25
2022-10-13T14:44:32.063Z,19.33
2022-10-13T14:47:07.411Z,16.48
2022-10-13T14:49:39.890Z,13.35
2022-10-13T14:52:10.543Z,13.95
2022-10-13T14:54:45.084Z,15.73
2022-10-13T14:57:19.536Z,16.83
2022-10-13T14:59:52.588Z,14.43
2022-10-13T15:02:20.812Z,13.85
2022-10-13T15:04:55.820Z,14.13
2022-10-13T15:07:36.842Z,14.65
2022-10-13T15:10:11.608Z,20.95
2022-10-13T15:12:43.365Z,17.50
2022-10-13T15:15:17.907Z,17.08
2022-10-13T15:17:49.936Z,17.10
2022-10-13T15:20:17.600Z,17.48
2022-10-13T15:22:49.043Z,18.23
2022-10-13T15:25:27.848Z,19.42
2022-10-13T15:27:59.390Z,21.58
2022-10-13T15:30:29.276Z,19.65
2022-10-13T15:33:02.301Z,18.48
2022-10-13T15:35:34.626Z,16.73
2022-10-13T15:38:05.280Z,21.08
2022-10-13T15:40:38.438Z,23.23
2022-10-13T15:43:20.499Z,18.02
2022-10-13T15:46:04.244Z,18.05
2022-10-13T15:48:34.876Z,20.97
2022-10-13T15:51:16.152Z,23.77
2022-10-13T15:53:51.689Z,28.73
2022-10-13T15:56:24.346Z,22.88
2022-10-13T15:58:58.891Z,18.85
2022-10-13T16:01:33.200Z,21.00
2022-10-13T16:04:05.887Z,21.33
2022-10-13T16:06:40.448Z,23.05
2022-10-13T16:09:13.141Z,20.55
2022-10-13T16:11:41.946Z,21.67
2022-10-13T16:14:13.703Z,16.77
2022-10-13T16:16:43.012Z,24.45
2022-10-13T16:19:12.744Z,22.65
2022-10-13T16:21:41.937Z,22.13
2022-10-13T16:24:10.487Z,21.02
2022-10-13T16:26:41.497Z,22.67
2022-10-13T16:29:12.122Z,23.27
2022-10-13T16:31:42.189Z,26.25
2022-10-13T16:34:14.916Z,27.42
2022-10-13T16:36:47.061Z,23.05
2022-10-13T16:39:19.090Z,22.00
2022-10-13T16:41:47.924Z,31.15
2022-10-13T16:44:18.378Z,25.08
2022-10-13T16:46:47.094Z,25.67
2022-10-13T16:49:20.675Z,24.60
2022-10-13T16:51:53.435Z,26.95
2022-10-13T16:54:25.936Z,25.08
2022-10-13T16:56:54.271Z,24.88
2022-10-13T16:59:28.253Z,27.15
2022-10-13T17:02:03.491Z,25.58
2022-10-13T17:07:07.562Z,28.73
2022-10-13T17:09:38.214Z,23.88
2022-10-13T17:12:09.849Z,22.77
2022-10-13T17:14:39.892Z,22.05
2022-10-13T17:17:09.338Z,24.00
2022-10-13T17:19:40.111Z,26.90
2022-10-13T17:22:13.002Z,30.02
2022-10-13T17:24:48.021Z,25.25
2022-10-13T17:29:46.753Z,28.13
2022-10-13T17:32:18.786Z,26.10
2022-10-13T17:34:49.104Z,23.42
2022-10-13T17:39:54.477Z,23.40
2022-10-13T17:42:24.044Z,29.85
2022-10-13T17:44:53.291Z,25.55
2022-10-13T17:47:24.448Z,29.17
2022-10-13T17:49:59.448Z,24.58
2022-10-13T17:52:33.464Z,22.25
2022-10-13T17:55:08.537Z,25.98
2022-10-13T17:57:46.141Z,27.17
2022-10-13T18:00:28.580Z,25.08
2022-10-13T18:03:05.707Z,34.38
2022-10-13T18:05:35.646Z,24.15
2022-10-13T18:08:17.325Z,23.30
2022-10-13T18:11:07.158Z,25.83
2022-10-13T18:13:37.338Z,26.35
2022-10-13T18:16:33.044Z,29.27
2022-10-13T18:19:07.814Z,21.20
2022-10-13T18:21:38.321Z,24.73
2022-10-13T18:24:12.716Z,22.63
2022-10-13T18:26:43.201Z,20.40
2022-10-13T18:29:13.618Z,21.60
2022-10-13T18:31:45.156Z,22.40
2022-10-13T18:34:18.102Z,20.08
2022-10-13T18:36:53.118Z,26.92
2022-10-13T18:39:29.427Z,26.05
2022-10-13T18:41:59.903Z,25.58
2022-10-13T18:44:40.083Z,26.45
2022-10-13T18:47:16.107Z,32.13
2022-10-13T18:49:45.886Z,27.40
2022-10-13T18:52:15.894Z,29.35
2022-10-13T18:54:46.745Z,35.22
2022-10-13T18:57:22.914Z,25.35
2022-10-13T18:59:57.143Z,25.98
2022-10-13T19:02:34.008Z,36.25
2022-10-13T19:05:10.292Z,27.33
2022-10-13T19:07:46.182Z,26.55
2022-10-13T19:10:16.375Z,26.58
2022-10-13T19:12:49.431Z,24.02
2022-10-13T19:15:21.590Z,25.30
2022-10-13T19:17:52.119Z,22.23
2022-10-13T19:20:28.176Z,24.23
2022-10-13T19:23:14.417Z,33.17
2022-10-13T19:25:48.120Z,28.40
2022-10-13T19:28:22.187Z,27.10
2022-10-13T19:31:00.914Z,25.38
2022-10-13T19:33:36.481Z,22.23
2022-10-13T19:36:14.967Z,24.55
2022-10-13T19:38:46.214Z,24.30
2022-10-13T19:41:17.239Z,24.50
2022-10-13T19:43:48.395Z,23.45
2022-10-13T19:46:30.721Z,20.52
2022-10-13T19:49:02.652Z,21.48
2022-10-13T19:51:36.608Z,22.83
2022-10-13T19:54:08.976Z,24.33
2022-10-13T19:56:40.145Z,21.42
2022-10-13T19:59:09.288Z,25.85
2022-10-13T20:01:41.638Z,24.98
2022-10-13T20:04:17.179Z,21.47
2022-10-13T20:06:56.272Z,17.75
2022-10-13T20:09:26.553Z,23.23
2022-10-13T20:11:57.839Z,22.30
2022-10-13T20:14:30.964Z,25.10
2022-10-13T20:17:01.519Z,21.30
2022-10-13T20:19:32.992Z,25.27
2022-10-13T20:22:04.429Z,23.05
2022-10-13T20:24:36.069Z,18.45
2022-10-13T20:27:08.196Z,20.58
2022-10-13T20:29:36.989Z,19.80
2022-10-13T20:32:06.510Z,18.73
2022-10-13T20:34:39.607Z,17.83
2022-10-13T20:37:09.921Z,26.75
2022-10-13T20:39:42.207Z,28.20
2022-10-13T20:42:13.195Z,21.27
2022-10-13T20:44:45.653Z,20.40
2022-10-13T20:47:17.717Z,21.92
2022-10-13T20:49:50.392Z,22.20
2022-10-13T20:52:29.733Z,21.45
2022-10-13T20:55:02.607Z,24.50
2022-10-13T20:57:38.454Z,25.30
2022-10-13T21:00:08.994Z,20.92
2022-10-13T21:02:41.658Z,20.70
2022-10-13T21:05:12.759Z,23.30
2022-10-13T21:07:42.935Z,22.17
2022-10-13T21:10:15.542Z,25.27
2022-10-13T21:12:58.772Z,21.10
2022-10-13T21:15:30.149Z,19.70
2022-10-13T21:18:01.188Z,24.50
2022-10-13T21:20:34.241Z,19.80
2022-10-13T21:23:06.259Z,21.83
2022-10-13T21:25:37.144Z,21.85
2022-10-13T21:28:06.704Z,25.80
2022-10-13T21:30:38.282Z,21.77
2022-10-13T21:33:11.145Z,23.63
2022-10-13T21:35:40.460Z,20.58
2022-10-13T21:38:11.966Z,22.02
2022-10-13T21:40:45.583Z,20.58
2022-10-13T21:43:17.285Z,21.13
2022-10-13T21:45:52.294Z,28.25
2022-10-13T21:48:27.083Z,28.15
2022-10-13T21:50:57.875Z,24.88
2022-10-13T21:53:31.500Z,18.52
2022-10-13T21:56:24.943Z,17.50
2022-10-13T21:58:55.284Z,19.77
2022-10-13T22:01:28.148Z,18.75
2022-10-13T22:04:02.634Z,22.98
2022-10-13T22:06:34.665Z,27.60
2022-10-13T22:09:10.468Z,21.55
2022-10-13T22:11:44.624Z,21.98
2022-10-13T22:14:16.826Z,25.02
2022-10-13T22:16:52.505Z,24.05
2022-10-13T22:19:23.471Z,21.73
2022-10-13T22:21:57.512Z,21.08
2022-10-13T22:24:31.811Z,20.50
2022-10-13T22:27:04.695Z,25.48
2022-10-13T22:29:38.715Z,23.27
2022-10-13T22:34:40.877Z,26.15
2022-10-13T22:37:09.369Z,23.42
2022-10-13T22:39:41.854Z,24.88
2022-10-13T22:42:14.008Z,23.35
2022-10-13T22:44:42.839Z,19.65
2022-10-13T22:47:12.122Z,26.80
2022-10-13T22:49:44.653Z,27.25
2022-10-13T22:52:14.333Z,23.70
2022-10-13T22:54:44.298Z,29.52
2022-10-13T22:57:14.570Z,20.52
2022-10-13T22:59:47.115Z,18.20
2022-10-13T23:02:21.542Z,19.40
2022-10-13T23:05:11.357Z,17.83
2022-10-13T23:07:39.087Z,26.88
2022-10-13T23:10:08.399Z,20.60
2022-10-13T23:12:44.531Z,24.95
2022-10-13T23:15:20.031Z,19.63
2022-10-13T23:17:51.645Z,20.05
2022-10-13T23:20:20.337Z,19.67
2022-10-13T23:22:52.483Z,32.17
2022-10-13T23:25:24.385Z,21.50
2022-10-13T23:27:55.924Z,26.40
2022-10-13T23:30:25.707Z,18.27
2022-10-13T23:32:56.214Z,20.95
2022-10-13T23:35:27.617Z,23.10
2022-10-13T23:37:59.688Z,24.30
2022-10-13T23:40:34.140Z,21.52
2022-10-13T23:43:07.879Z,15.48
2022-10-13T23:45:42.814Z,18.23
2022-10-13T23:48:16.459Z,20.33
2022-10-13T23:51:12.695Z,21.90
2022-10-13T23:53:47.380Z,21.77
2022-10-13T23:56:25.494Z,24.90
2022-10-13T23:59:00.480Z,18.20
